Time;durP1;ratioP1;P1;durP2;ratioP2;P2;SDS_P1;SDS_P2;PMS_P1;PMS_P2;Temp;Humidity;BMP_temperature;BMP_pressure;BME280_temperature;BME280_humidity;BME280_pressure;Samples;Min_cycle;Max_cycle;Signal;HPM_P1;HPM_P2
2023/10/17 00:02:49;;;;;;;23.05;13.27;;;;;;;;;;4935829;29;20047;-61
2023/10/17 00:05:15;;;;;;;24.48;13.40;;;;;;;;;;4935086;29;20384;-60
2023/10/17 00:07:45;;;;;;;24.13;13.90;;;;;;;;;;4936858;29;20120;-60
2023/10/17 00:10:18;;;;;;;23.30;13.15;;;;;;;;;;4916602;29;20679;-59
2023/10/17 00:12:46;;;;;;;21.55;12.38;;;;;;;;;;4937655;29;20048;-59
2023/10/17 00:15:27;;;;;;;23.45;13.20;;;;;;;;;;4929243;29;20038;-60
2023/10/17 00:20:51;;;;;;;22.52;12.88;;;;;;;;;;4913517;29;20206;-61
2023/10/17 00:23:20;;;;;;;22.52;12.75;;;;;;;;;;4923599;29;20047;-60
2023/10/17 00:25:46;;;;;;;22.77;12.82;;;;;;;;;;4933277;29;20048;-58
2023/10/17 00:28:20;;;;;;;24.55;13.35;;;;;;;;;;4918950;29;20098;-60
2023/10/17 00:30:48;;;;;;;20.55;12.88;;;;;;;;;;4927196;29;20032;-60
2023/10/17 00:33:15;;;;;;;20.60;13.15;;;;;;;;;;4934213;29;20063;-59
2023/10/17 00:35:51;;;;;;;22.75;13.00;;;;;;;;;;4911330;29;20520;-60
2023/10/17 00:38:17;;;;;;;21.20;12.68;;;;;;;;;;4929266;29;20090;-60
2023/10/17 00:40:51;;;;;;;22.52;12.85;;;;;;;;;;4926403;29;20477;-59
2023/10/17 00:43:17;;;;;;;24.83;14.10;;;;;;;;;;4927051;29;20047;-60
2023/10/17 00:45:47;;;;;;;35.97;13.90;;;;;;;;;;4937021;29;20118;-60
2023/10/17 00:48:22;;;;;;;26.10;13.20;;;;;;;;;;4938611;29;20269;-59
2023/10/17 00:50:52;;;;;;;25.90;13.25;;;;;;;;;;4919629;29;20306;-61
2023/10/17 00:53:17;;;;;;;25.20;12.90;;;;;;;;;;4934619;29;20082;-59
2023/10/17 00:55:55;;;;;;;23.60;14.05;;;;;;;;;;4933389;29;20035;-59
2023/10/17 00:58:27;;;;;;;21.23;12.95;;;;;;;;;;4930532;29;20099;-59
2023/10/17 01:01:05;;;;;;;25.42;13.95;;;;;;;;;;4931079;29;20035;-59
2023/10/17 01:03:31;;;;;;;23.88;12.98;;;;;;;;;;4930012;29;20036;-60
2023/10/17 01:06:38;;;;;;;20.50;13.30;;;;;;;;;;4920380;29;20105;-61
2023/10/17 01:08:48;;;;;;;26.13;14.18;;;;;;;;;;4925497;29;20040;-60
2023/10/17 01:11:20;;;;;;;25.83;14.73;;;;;;;;;;4933048;29;20201;-60
2023/10/17 01:13:47;;;;;;;25.90;14.80;;;;;;;;;;4935989;29;20074;-62
2023/10/17 01:16:16;;;;;;;28.73;15.50;;;;;;;;;;4911258;29;20503;-61
2023/10/17 01:18:44;;;;;;;22.10;13.32;;;;;;;;;;4932961;29;20103;-60
2023/10/17 01:21:14;;;;;;;22.75;13.85;;;;;;;;;;4920882;29;20029;-60
2023/10/17 01:23:43;;;;;;;24.25;14.90;;;;;;;;;;4912517;29;20044;-61
2023/10/17 01:26:11;;;;;;;25.05;15.07;;;;;;;;;;4931288;29;20039;-63
2023/10/17 01:28:36;;;;;;;26.92;14.95;;;;;;;;;;4928219;29;20036;-60
2023/10/17 01:31:03;;;;;;;23.75;14.75;;;;;;;;;;4920144;29;20056;-60
2023/10/17 01:33:29;;;;;;;26.60;14.70;;;;;;;;;;4924629;29;20536;-60
2023/10/17 01:35:58;;;;;;;27.08;15.27;;;;;;;;;;4931049;29;20065;-61
2023/10/17 01:38:33;;;;;;;24.92;15.35;;;;;;;;;;4933712;29;20043;-59
2023/10/17 01:40:59;;;;;;;23.90;13.57;;;;;;;;;;4933470;29;20035;-58
2023/10/17 01:43:29;;;;;;;27.67;15.40;;;;;;;;;;4935081;29;20035;-59
2023/10/17 01:45:56;;;;;;;23.40;14.68;;;;;;;;;;4934579;29;20047;-60
2023/10/17 01:48:23;;;;;;;27.92;15.38;;;;;;;;;;4933671;29;20065;-60
2023/10/17 01:50:49;;;;;;;30.13;15.05;;;;;;;;;;4930253;29;20032;-60
2023/10/17 01:53:14;;;;;;;26.55;15.50;;;;;;;;;;4934079;29;20035;-59
2023/10/17 01:55:42;;;;;;;24.42;15.40;;;;;;;;;;4934576;29;20036;-60
2023/10/17 01:58:07;;;;;;;26.30;15.50;;;;;;;;;;4931182;29;20028;-60
2023/10/17 02:03:03;;;;;;;22.77;14.93;;;;;;;;;;4929699;29;20479;-60
2023/10/17 02:05:29;;;;;;;25.25;15.00;;;;;;;;;;4929342;29;20392;-59
2023/10/17 02:07:55;;;;;;;24.58;14.88;;;;;;;;;;4915700;29;20032;-59
2023/10/17 02:10:30;;;;;;;27.42;16.02;;;;;;;;;;4925495;29;20377;-59
2023/10/17 02:12:55;;;;;;;26.15;15.32;;;;;;;;;;4934564;29;20055;-60
2023/10/17 02:15:23;;;;;;;28.90;15.20;;;;;;;;;;4933998;29;20048;-59
2023/10/17 02:17:51;;;;;;;25.90;14.68;;;;;;;;;;4934042;29;20035;-59
2023/10/17 02:23:02;;;;;;;25.55;14.60;;;;;;;;;;4934254;29;20118;-59
2023/10/17 02:25:32;;;;;;;27.77;15.40;;;;;;;;;;4933496;29;20042;-58
2023/10/17 02:27:58;;;;;;;26.88;14.73;;;;;;;;;;4933221;29;20032;-60
2023/10/17 02:30:24;;;;;;;25.25;14.55;;;;;;;;;;4916227;29;20027;-60
2023/10/17 02:32:56;;;;;;;24.05;13.82;;;;;;;;;;4933402;29;20035;-61
2023/10/17 02:35:40;;;;;;;24.75;13.50;;;;;;;;;;4930905;29;20096;-61
2023/10/17 02:38:08;;;;;;;24.27;14.10;;;;;;;;;;4931690;29;20067;-61
2023/10/17 02:40:34;;;;;;;21.88;13.65;;;;;;;;;;4933855;29;20036;-59
2023/10/17 02:43:03;;;;;;;25.25;14.40;;;;;;;;;;4933142;29;20429;-61
2023/10/17 02:45:29;;;;;;;28.80;13.98;;;;;;;;;;4916664;29;20465;-60
2023/10/17 02:48:06;;;;;;;28.90;15.05;;;;;;;;;;4916226;29;20036;-59
2023/10/17 02:52:57;;;;;;;24.17;13.90;;;;;;;;;;4934083;29;20036;-59
2023/10/17 02:55:26;;;;;;;23.10;13.48;;;;;;;;;;4933297;29;20051;-59
2023/10/17 02:57:52;;;;;;;24.25;14.13;;;;;;;;;;4914882;29;20071;-60
2023/10/17 03:00:22;;;;;;;24.45;14.40;;;;;;;;;;4932789;29;20530;-59
2023/10/17 03:02:58;;;;;;;26.65;14.00;;;;;;;;;;4932679;29;20484;-58
2023/10/17 03:05:25;;;;;;;26.98;14.25;;;;;;;;;;4931135;29;20122;-59
2023/10/17 03:07:50;;;;;;;22.25;14.15;;;;;;;;;;4933051;29;20070;-59
2023/10/17 03:10:21;;;;;;;23.70;14.65;;;;;;;;;;4932199;29;20059;-59
2023/10/17 03:12:55;;;;;;;23.55;14.27;;;;;;;;;;4932819;29;20397;-60
2023/10/17 03:15:22;;;;;;;27.40;14.55;;;;;;;;;;4932567;29;20139;-60
2023/10/17 03:17:53;;;;;;;24.20;14.15;;;;;;;;;;4931694;29;20034;-59
2023/10/17 03:20:20;;;;;;;22.02;14.23;;;;;;;;;;4933638;29;20138;-59
2023/10/17 03:22:46;;;;;;;23.90;13.80;;;;;;;;;;4914737;29;20067;-59
2023/10/17 03:25:20;;;;;;;24.98;14.50;;;;;;;;;;4933509;29;20059;-60
2023/10/17 03:27:49;;;;;;;21.60;13.98;;;;;;;;;;4930956;29;20087;-60
2023/10/17 03:30:19;;;;;;;25.02;14.63;;;;;;;;;;4932219;29;20046;-61
2023/10/17 03:35:29;;;;;;;24.70;13.65;;;;;;;;;;4930135;29;20050;-60
2023/10/17 03:37:54;;;;;;;24.02;14.55;;;;;;;;;;4933273;29;20091;-60
2023/10/17 03:40:40;;;;;;;26.73;14.25;;;;;;;;;;4931987;29;20441;-59
2023/10/17 03:43:11;;;;;;;23.67;13.98;;;;;;;;;;4932547;29;20039;-61
2023/10/17 03:45:43;;;;;;;25.80;15.52;;;;;;;;;;4925340;29;20031;-61
2023/10/17 03:48:15;;;;;;;24.75;14.52;;;;;;;;;;4932312;29;20038;-60
2023/10/17 03:53:15;;;;;;;25.45;15.15;;;;;;;;;;4913518;29;20073;-59
2023/10/17 03:55:48;;;;;;;26.70;15.27;;;;;;;;;;4930524;29;20580;-60
2023/10/17 04:00:54;;;;;;;24.50;15.38;;;;;;;;;;4933290;29;20043;-60
2023/10/17 04:03:22;;;;;;;30.13;16.48;;;;;;;;;;4931662;29;20107;-60
2023/10/17 04:06:12;;;;;;;27.40;15.85;;;;;;;;;;4913213;29;20039;-60
2023/10/17 04:14:00;;;;;;;25.75;15.38;;;;;;;;;;4935552;29;20055;-60
2023/10/17 04:16:34;;;;;;;23.75;14.65;;;;;;;;;;4931376;29;20066;-59
2023/10/17 04:19:00;;;;;;;25.38;15.23;;;;;;;;;;4940267;29;20468;-60
2023/10/17 04:21:37;;;;;;;25.80;15.18;;;;;;;;;;4933030;29;20192;-59
2023/10/17 04:24:06;;;;;;;26.20;15.00;;;;;;;;;;4932744;29;20032;-59
2023/10/17 04:26:43;;;;;;;27.63;16.00;;;;;;;;;;4932656;29;20058;-60
2023/10/17 04:29:12;;;;;;;26.02;14.88;;;;;;;;;;4915075;29;20063;-60
2023/10/17 04:31:39;;;;;;;27.45;15.23;;;;;;;;;;4934147;29;20385;-60
2023/10/17 04:34:08;;;;;;;28.60;15.15;;;;;;;;;;4934009;29;20036;-60
2023/10/17 04:36:39;;;;;;;26.20;15.18;;;;;;;;;;4917167;29;20046;-59
2023/10/17 04:39:18;;;;;;;28.55;16.23;;;;;;;;;;4933708;29;20054;-59
2023/10/17 04:44:21;;;;;;;27.15;15.55;;;;;;;;;;4936629;29;20054;-60
2023/10/17 04:49:39;;;;;;;26.95;14.48;;;;;;;;;;4907686;29;20047;-59
2023/10/17 04:52:08;;;;;;;23.45;13.52;;;;;;;;;;4919711;29;20091;-60
2023/10/17 04:57:07;;;;;;;24.13;14.38;;;;;;;;;;4940677;29;20111;-59
2023/10/17 05:03:03;;;;;;;24.35;15.88;;;;;;;;;;4939520;29;20042;-59
2023/10/17 06:18:52;;;;;;;29.90;17.17;;;;;;;;;;4902568;29;20175;-60
2023/10/17 06:21:18;;;;;;;30.83;17.33;;;;;;;;;;4915631;29;20032;-60
2023/10/17 06:26:47;;;;;;;34.70;17.15;;;;;;;;;;4932186;29;20042;-57
2023/10/17 06:32:07;;;;;;;28.98;17.10;;;;;;;;;;4916358;29;20156;-61
2023/10/17 06:34:38;;;;;;;33.90;17.42;;;;;;;;;;4916184;29;20048;-61
2023/10/17 06:37:07;;;;;;;34.40;16.88;;;;;;;;;;4914943;29;20111;-61
2023/10/17 06:39:46;;;;;;;31.40;17.60;;;;;;;;;;4896546;29;20107;-61
2023/10/17 06:42:15;;;;;;;31.50;17.42;;;;;;;;;;4897219;29;20036;-61
2023/10/17 06:47:31;;;;;;;32.55;18.05;;;;;;;;;;4896740;29;20233;-59
2023/10/17 06:55:21;;;;;;;33.47;18.30;;;;;;;;;;4896573;29;20040;-61
2023/10/17 06:57:50;;;;;;;35.85;17.73;;;;;;;;;;4886109;29;20032;-60
2023/10/17 07:00:24;;;;;;;36.58;18.67;;;;;;;;;;4915142;29;20489;-54
2023/10/17 07:02:50;;;;;;;32.22;16.92;;;;;;;;;;4909986;29;20063;-60
2023/10/17 07:05:21;;;;;;;34.03;17.08;;;;;;;;;;4910755;29;20089;-61
2023/10/17 07:07:53;;;;;;;35.25;19.40;;;;;;;;;;4909884;29;20033;-61
2023/10/17 07:13:39;;;;;;;36.10;17.42;;;;;;;;;;4922135;29;20075;-61
2023/10/17 07:16:11;;;;;;;32.42;17.17;;;;;;;;;;4914625;29;20123;-61
2023/10/17 07:21:37;;;;;;;29.33;16.23;;;;;;;;;;4896298;29;20130;-60
2023/10/17 07:24:07;;;;;;;29.65;16.80;;;;;;;;;;4934534;29;20044;-61
2023/10/17 07:28:57;;;;;;;34.08;16.92;;;;;;;;;;4934416;29;20430;-62
2023/10/17 07:31:23;;;;;;;29.70;17.35;;;;;;;;;;4936781;29;20035;-62
2023/10/17 07:36:34;;;;;;;34.13;18.00;;;;;;;;;;4935038;29;20166;-61
2023/10/17 07:39:16;;;;;;;31.85;17.23;;;;;;;;;;4936225;29;20043;-61
2023/10/17 07:41:51;;;;;;;33.20;17.77;;;;;;;;;;4919312;29;20032;-61
2023/10/17 07:44:19;;;;;;;29.05;16.90;;;;;;;;;;4933812;29;20032;-61
2023/10/17 07:46:50;;;;;;;31.30;17.65;;;;;;;;;;4917333;29;20039;-61
2023/10/17 07:49:25;;;;;;;30.98;17.13;;;;;;;;;;4934035;29;20205;-61
2023/10/17 07:51:51;;;;;;;32.63;16.85;;;;;;;;;;4934120;29;20394;-61
2023/10/17 07:54:18;;;;;;;30.70;17.38;;;;;;;;;;4934017;29;20090;-61
2023/10/17 07:56:51;;;;;;;37.15;18.08;;;;;;;;;;4934346;29;20441;-61
2023/10/17 07:59:18;;;;;;;31.60;17.75;;;;;;;;;;4933615;29;20038;-61
2023/10/17 08:01:45;;;;;;;32.63;17.50;;;;;;;;;;4933948;29;20049;-61
2023/10/17 08:04:17;;;;;;;32.58;17.80;;;;;;;;;;4934176;29;20063;-61
2023/10/17 08:06:46;;;;;;;32.42;17.95;;;;;;;;;;4919320;29;20028;-61
2023/10/17 08:09:24;;;;;;;32.22;17.15;;;;;;;;;;4930310;29;20040;-60
2023/10/17 08:11:53;;;;;;;34.05;17.63;;;;;;;;;;4917675;29;20044;-61
2023/10/17 08:14:26;;;;;;;32.33;17.23;;;;;;;;;;4903314;29;20047;-62
2023/10/17 08:16:55;;;;;;;32.65;17.67;;;;;;;;;;4915023;29;20044;-61
2023/10/17 08:19:23;;;;;;;34.33;17.77;;;;;;;;;;4887287;29;20055;-61
2023/10/17 08:21:59;;;;;;;34.75;18.65;;;;;;;;;;4900296;29;20040;-61
2023/10/17 08:24:46;;;;;;;31.98;18.17;;;;;;;;;;4913754;29;20032;-62
2023/10/17 08:29:43;;;;;;;;;;;;;;;;;;4902412;29;20489;-61
2023/10/17 08:34:56;;;;;;;33.40;17.85;;;;;;;;;;4899995;29;20131;-61
2023/10/17 08:37:40;;;;;;;30.50;17.77;;;;;;;;;;4899208;29;20033;-62
2023/10/17 08:40:29;;;;;;;29.67;17.48;;;;;;;;;;4899731;29;20068;-60
2023/10/17 08:42:52;;;;;;;31.73;17.60;;;;;;;;;;4899403;29;20394;-60
2023/10/17 08:45:19;;;;;;;29.50;16.67;;;;;;;;;;4908810;29;20032;-61
2023/10/17 08:47:46;;;;;;;29.48;17.27;;;;;;;;;;4918292;29;20043;-60
2023/10/17 08:50:15;;;;;;;29.73;17.50;;;;;;;;;;4917223;29;20100;-60
2023/10/17 08:52:44;;;;;;;30.63;17.27;;;;;;;;;;4897537;29;20126;-60
2023/10/17 08:55:15;;;;;;;33.85;17.40;;;;;;;;;;4882971;29;20063;-61
2023/10/17 08:57:40;;;;;;;30.95;16.67;;;;;;;;;;4901020;29;20082;-61
2023/10/17 09:02:39;;;;;;;26.50;15.40;;;;;;;;;;4919165;29;20032;-61
2023/10/17 09:05:17;;;;;;;29.67;16.37;;;;;;;;;;4885308;29;20043;-61
2023/10/17 09:07:45;;;;;;;30.30;15.10;;;;;;;;;;4898918;29;20756;-59
2023/10/17 09:10:28;;;;;;;25.73;14.75;;;;;;;;;;4916939;29;20469;-61
2023/10/17 09:15:48;;;;;;;24.75;13.75;;;;;;;;;;4917336;29;20181;-60
2023/10/17 09:18:14;;;;;;;24.38;14.52;;;;;;;;;;4916985;29;20051;-62
2023/10/17 09:20:42;;;;;;;25.92;14.05;;;;;;;;;;4937455;29;20041;-61
2023/10/17 09:23:23;;;;;;;23.73;13.82;;;;;;;;;;4937698;29;20460;-61
2023/10/17 09:25:55;;;;;;;24.38;14.25;;;;;;;;;;4935373;29;20046;-61
2023/10/17 09:28:22;;;;;;;22.55;13.13;;;;;;;;;;4941526;29;20036;-62
2023/10/17 09:30:59;;;;;;;19.63;13.07;;;;;;;;;;4936022;29;20040;-61
2023/10/17 09:33:31;;;;;;;21.95;12.63;;;;;;;;;;4935571;29;20039;-61
2023/10/17 09:36:04;;;;;;;20.23;12.73;;;;;;;;;;4936687;29;20047;-61
2023/10/17 09:38:34;;;;;;;24.15;12.75;;;;;;;;;;4919420;29;20039;-61
2023/10/17 09:41:05;;;;;;;22.00;12.40;;;;;;;;;;4936230;29;20043;-61
2023/10/17 09:43:31;;;;;;;20.33;12.30;;;;;;;;;;4935841;29;20258;-61
2023/10/17 09:46:04;;;;;;;21.05;12.05;;;;;;;;;;4935914;29;20047;-61
2023/10/17 09:48:34;;;;;;;19.15;12.05;;;;;;;;;;4935694;29;20039;-61
2023/10/17 09:51:01;;;;;;;19.25;11.35;;;;;;;;;;4936143;29;20032;-61
2023/10/17 09:53:32;;;;;;;19.63;11.73;;;;;;;;;;4935170;29;20050;-61
2023/10/17 09:56:16;;;;;;;19.85;11.65;;;;;;;;;;4936485;29;20036;-61
2023/10/17 09:58:51;;;;;;;18.77;11.07;;;;;;;;;;4926046;29;20146;-60
2023/10/17 10:01:23;;;;;;;21.48;11.52;;;;;;;;;;4935994;29;20035;-61
2023/10/17 10:03:53;;;;;;;16.73;11.02;;;;;;;;;;4935731;29;20374;-61
2023/10/17 10:06:23;;;;;;;15.18;10.40;;;;;;;;;;4935898;29;20035;-61
2023/10/17 10:08:54;;;;;;;16.13;10.00;;;;;;;;;;4935876;29;20063;-60
2023/10/17 10:11:20;;;;;;;14.65;10.00;;;;;;;;;;4935232;29;20062;-61
2023/10/17 10:14:14;;;;;;;21.13;10.23;;;;;;;;;;4936096;29;20031;-61
2023/10/17 10:16:51;;;;;;;18.17;9.85;;;;;;;;;;4935228;29;20031;-63
2023/10/17 10:19:17;;;;;;;17.27;9.60;;;;;;;;;;4933842;29;20043;-61
2023/10/17 10:21:54;;;;;;;15.40;9.57;;;;;;;;;;4935162;29;20377;-60
2023/10/17 10:24:26;;;;;;;12.93;8.68;;;;;;;;;;4935596;29;20040;-60
2023/10/17 10:27:17;;;;;;;13.85;9.05;;;;;;;;;;4935759;29;20513;-60
2023/10/17 10:29:43;;;;;;;16.25;9.20;;;;;;;;;;4935069;29;20040;-60
2023/10/17 10:32:33;;;;;;;13.70;9.07;;;;;;;;;;4935050;29;20091;-59
2023/10/17 10:34:59;;;;;;;15.18;8.65;;;;;;;;;;4926231;29;20153;-61
2023/10/17 10:37:25;;;;;;;14.35;7.88;;;;;;;;;;4935555;29;20072;-61
2023/10/17 10:42:49;;;;;;;12.73;7.63;;;;;;;;;;4932413;29;20038;-61
2023/10/17 10:45:36;;;;;;;12.88;8.25;;;;;;;;;;4935342;29;20032;-61
2023/10/17 10:48:32;;;;;;;12.52;7.38;;;;;;;;;;4935096;29;20035;-65
2023/10/17 10:50:59;;;;;;;9.75;6.45;;;;;;;;;;4919412;29;20047;-61
2023/10/17 10:53:31;;;;;;;9.82;6.35;;;;;;;;;;4942087;29;20043;-61
2023/10/17 10:56:09;;;;;;;12.15;6.30;;;;;;;;;;4926952;29;20469;-62
2023/10/17 10:58:43;;;;;;;9.48;6.00;;;;;;;;;;4934399;29;20051;-62
2023/10/17 11:01:09;;;;;;;9.55;5.88;;;;;;;;;;4916033;29;20040;-59
2023/10/17 11:03:41;;;;;;;9.18;5.20;;;;;;;;;;4930229;29;20406;-62
2023/10/17 11:06:10;;;;;;;10.27;5.90;;;;;;;;;;4936997;29;20422;-62
2023/10/17 11:08:35;;;;;;;8.88;5.60;;;;;;;;;;4936628;29;20118;-62
2023/10/17 11:11:03;;;;;;;9.50;5.35;;;;;;;;;;4935435;29;20110;-62
2023/10/17 11:13:39;;;;;;;9.30;5.38;;;;;;;;;;4948255;29;20110;-61
2023/10/17 11:16:05;;;;;;;7.50;5.25;;;;;;;;;;4934821;29;20042;-60
2023/10/17 11:18:35;;;;;;;7.35;5.40;;;;;;;;;;4934045;29;20034;-61
2023/10/17 11:21:02;;;;;;;7.50;5.20;;;;;;;;;;4917712;29;20040;-61
2023/10/17 11:23:29;;;;;;;7.85;5.20;;;;;;;;;;4933641;29;20035;-61
2023/10/17 11:25:57;;;;;;;8.80;5.60;;;;;;;;;;4934254;29;20036;-61
2023/10/17 11:28:22;;;;;;;7.40;5.60;;;;;;;;;;4934121;29;20036;-62
2023/10/17 11:30:48;;;;;;;9.15;5.75;;;;;;;;;;4934244;29;20118;-61
2023/10/17 11:33:17;;;;;;;8.60;5.57;;;;;;;;;;4934069;29;20039;-61
2023/10/17 11:35:52;;;;;;;7.70;5.40;;;;;;;;;;4933713;29;20047;-60
2023/10/17 11:38:40;;;;;;;10.27;5.90;;;;;;;;;;4934587;29;20031;-60
2023/10/17 11:41:06;;;;;;;8.15;6.05;;;;;;;;;;4934398;29;20463;-61
2023/10/17 11:43:36;;;;;;;7.63;5.60;;;;;;;;;;4933380;29;20525;-61
2023/10/17 11:46:12;;;;;;;11.23;6.97;;;;;;;;;;4933424;29;20429;-59
2023/10/17 11:48:44;;;;;;;9.88;6.03;;;;;;;;;;4933687;29;20036;-59
2023/10/17 11:51:16;;;;;;;9.98;5.75;;;;;;;;;;4934092;29;20115;-61
2023/10/17 11:54:07;;;;;;;9.13;5.93;;;;;;;;;;4939350;29;20372;-60
2023/10/17 11:56:37;;;;;;;8.68;5.53;;;;;;;;;;4939045;29;20420;-59
2023/10/17 11:59:06;;;;;;;8.50;5.70;;;;;;;;;;4940307;29;20047;-59
2023/10/17 12:01:32;;;;;;;10.00;6.20;;;;;;;;;;4917476;29;20055;-59
2023/10/17 12:04:06;;;;;;;7.03;5.53;;;;;;;;;;4923301;29;20091;-58
2023/10/17 12:06:35;;;;;;;7.35;5.20;;;;;;;;;;4939722;29;20041;-60
2023/10/17 12:09:22;;;;;;;7.43;5.30;;;;;;;;;;4940705;29;20397;-60
2023/10/17 12:11:50;;;;;;;11.68;5.45;;;;;;;;;;4940286;29;20139;-60
2023/10/17 12:14:21;;;;;;;8.73;5.45;;;;;;;;;;4940227;29;20067;-60
2023/10/17 12:16:48;;;;;;;7.85;5.55;;;;;;;;;;4938278;29;20035;-60
2023/10/17 12:19:16;;;;;;;8.05;5.35;;;;;;;;;;4939333;29;20031;-60
2023/10/17 12:21:48;;;;;;;13.57;8.60;;;;;;;;;;4922437;29;20031;-59
2023/10/17 12:24:21;;;;;;;8.93;5.88;;;;;;;;;;4939512;29;20547;-60
2023/10/17 12:26:49;;;;;;;7.80;5.72;;;;;;;;;;4940148;29;20035;-60
2023/10/17 12:29:15;;;;;;;6.65;5.30;;;;;;;;;;4940443;29;20122;-59
2023/10/17 12:31:41;;;;;;;7.53;5.10;;;;;;;;;;4937161;29;20058;-60
2023/10/17 12:34:07;;;;;;;8.00;5.13;;;;;;;;;;4940519;29;20074;-59
2023/10/17 12:36:38;;;;;;;7.63;4.97;;;;;;;;;;4938935;28;20536;-59
2023/10/17 12:39:07;;;;;;;7.47;5.20;;;;;;;;;;4940103;29;20497;-61
2023/10/17 12:41:35;;;;;;;7.32;5.18;;;;;;;;;;4938893;29;20039;-59
2023/10/17 12:44:00;;;;;;;7.47;4.90;;;;;;;;;;4940372;29;20461;-60
2023/10/17 12:46:26;;;;;;;8.15;5.15;;;;;;;;;;4906272;29;20043;-62
2023/10/17 12:48:52;;;;;;;7.80;5.32;;;;;;;;;;4934864;29;20458;-64
2023/10/17 12:51:20;;;;;;;7.05;5.30;;;;;;;;;;4940915;29;20126;-61
2023/10/17 12:53:46;;;;;;;8.25;5.53;;;;;;;;;;4939932;29;20032;-62
2023/10/17 12:56:12;;;;;;;6.78;5.00;;;;;;;;;;4939896;29;20091;-61
2023/10/17 12:58:37;;;;;;;8.88;5.57;;;;;;;;;;4939542;29;20033;-62
2023/10/17 13:01:04;;;;;;;8.10;5.60;;;;;;;;;;4939730;29;20039;-61
2023/10/17 13:03:33;;;;;;;8.35;5.20;;;;;;;;;;4936935;29;20048;-61
2023/10/17 13:06:02;;;;;;;8.82;5.13;;;;;;;;;;4934777;29;20560;-62
2023/10/17 13:08:28;;;;;;;7.32;5.07;;;;;;;;;;4935947;29;20050;-62
2023/10/17 13:10:55;;;;;;;6.70;5.18;;;;;;;;;;4936907;29;20413;-61
2023/10/17 13:13:21;;;;;;;6.95;4.75;;;;;;;;;;4936175;29;20138;-62
2023/10/17 13:15:50;;;;;;;8.45;5.30;;;;;;;;;;4936745;29;20091;-61
2023/10/17 13:18:16;;;;;;;6.20;4.82;;;;;;;;;;4919839;29;20032;-61
2023/10/17 13:20:48;;;;;;;7.07;4.70;;;;;;;;;;4935802;29;20469;-61
2023/10/17 13:23:17;;;;;;;6.25;4.90;;;;;;;;;;4936236;29;20048;-61
2023/10/17 13:25:43;;;;;;;6.10;5.10;;;;;;;;;;4934806;29;20039;-61
2023/10/17 13:28:10;;;;;;;5.93;5.00;;;;;;;;;;4936651;29;20088;-61
2023/10/17 13:30:36;;;;;;;6.53;5.03;;;;;;;;;;4918368;29;20122;-61
2023/10/17 13:33:02;;;;;;;5.30;4.80;;;;;;;;;;4935608;29;20112;-61
2023/10/17 13:35:28;;;;;;;5.72;5.10;;;;;;;;;;4931129;29;20122;-61
2023/10/17 13:37:55;;;;;;;6.57;5.35;;;;;;;;;;4936690;29;20078;-61
2023/10/17 13:40:23;;;;;;;6.88;5.55;;;;;;;;;;4936301;29;20031;-61
2023/10/17 13:42:50;;;;;;;6.95;5.50;;;;;;;;;;4936245;29;20044;-60
2023/10/17 13:45:23;;;;;;;6.47;5.13;;;;;;;;;;4936696;29;20027;-60
2023/10/17 13:47:55;;;;;;;5.72;5.07;;;;;;;;;;4937095;29;20036;-60
2023/10/17 13:50:21;;;;;;;5.35;4.85;;;;;;;;;;4936427;29;20063;-60
2023/10/17 13:52:48;;;;;;;5.13;4.63;;;;;;;;;;4935641;29;20040;-60
2023/10/17 13:55:25;;;;;;;5.45;4.95;;;;;;;;;;4936376;29;20035;-60
2023/10/17 13:58:01;;;;;;;6.68;5.60;;;;;;;;;;4935707;29;20038;-60
2023/10/17 14:00:36;;;;;;;6.68;5.97;;;;;;;;;;4903442;29;20484;-60
2023/10/17 14:03:05;;;;;;;6.10;5.25;;;;;;;;;;4890743;29;20055;-60
2023/10/17 14:05:30;;;;;;;8.27;5.30;;;;;;;;;;4935353;29;20040;-60
2023/10/17 14:07:56;;;;;;;6.07;5.07;;;;;;;;;;4918964;29;20103;-60
2023/10/17 14:10:24;;;;;;;6.55;5.15;;;;;;;;;;4935943;29;20032;-60
2023/10/17 14:12:51;;;;;;;7.28;5.60;;;;;;;;;;4935686;29;20051;-60
2023/10/17 14:15:19;;;;;;;7.05;5.43;;;;;;;;;;4935450;29;20039;-60
2023/10/17 14:17:49;;;;;;;7.88;5.82;;;;;;;;;;4902341;29;20309;-60
2023/10/17 14:20:28;;;;;;;7.47;6.07;;;;;;;;;;4935660;29;20473;-60
2023/10/17 14:23:08;;;;;;;5.88;5.28;;;;;;;;;;4935927;29;20261;-60
2023/10/17 14:28:18;;;;;;;6.60;5.25;;;;;;;;;;4935806;29;20508;-60
2023/10/17 14:30:44;;;;;;;6.03;5.03;;;;;;;;;;4935085;29;20028;-59
2023/10/17 14:33:09;;;;;;;5.68;5.18;;;;;;;;;;4934710;29;20024;-60
2023/10/17 14:35:35;;;;;;;5.70;5.20;;;;;;;;;;4917183;29;20533;-62
2023/10/17 14:38:02;;;;;;;5.93;5.35;;;;;;;;;;4936031;29;20036;-61
2023/10/17 14:40:31;;;;;;;6.25;5.65;;;;;;;;;;4935438;29;20481;-60
2023/10/17 14:42:57;;;;;;;6.30;5.70;;;;;;;;;;4935694;29;20031;-60
2023/10/17 14:45:24;;;;;;;6.32;5.43;;;;;;;;;;4918248;29;20040;-60
2023/10/17 14:47:55;;;;;;;6.22;5.15;;;;;;;;;;4934937;29;20127;-60
2023/10/17 14:50:20;;;;;;;6.63;5.18;;;;;;;;;;4935084;29;20043;-60
2023/10/17 14:52:46;;;;;;;5.63;4.95;;;;;;;;;;4934325;29;20039;-60
2023/10/17 14:55:15;;;;;;;4.90;4.40;;;;;;;;;;4918250;29;20028;-61
2023/10/17 14:57:43;;;;;;;5.15;4.65;;;;;;;;;;4917547;29;20034;-60
2023/10/17 15:00:11;;;;;;;5.40;4.40;;;;;;;;;;4935116;29;20063;-60
2023/10/17 15:02:39;;;;;;;5.13;4.20;;;;;;;;;;4934005;29;20042;-61
2023/10/17 15:05:08;;;;;;;5.28;4.40;;;;;;;;;;4935049;29;20039;-61
2023/10/17 15:07:37;;;;;;;4.72;4.20;;;;;;;;;;4934061;29;20035;-61
2023/10/17 15:10:11;;;;;;;4.50;4.00;;;;;;;;;;4918196;29;20092;-61
2023/10/17 15:12:40;;;;;;;4.80;4.10;;;;;;;;;;4933613;29;20059;-60
2023/10/17 15:15:10;;;;;;;5.40;4.20;;;;;;;;;;4917935;29;20461;-60
2023/10/17 15:17:41;;;;;;;5.10;4.40;;;;;;;;;;4917195;29;20111;-60
2023/10/17 15:20:13;;;;;;;5.40;4.30;;;;;;;;;;4917983;29;20035;-60
2023/10/17 15:22:43;;;;;;;6.47;4.10;;;;;;;;;;4922047;29;20040;-60
2023/10/17 15:25:11;;;;;;;5.78;4.00;;;;;;;;;;4915612;29;20032;-60
2023/10/17 15:27:37;;;;;;;4.90;3.90;;;;;;;;;;4913597;29;20111;-62
2023/10/17 15:30:03;;;;;;;6.07;4.20;;;;;;;;;;4930308;29;20127;-59
2023/10/17 15:32:29;;;;;;;6.63;4.00;;;;;;;;;;4915563;29;20039;-62
2023/10/17 15:34:54;;;;;;;4.38;3.63;;;;;;;;;;4898564;29;20381;-60
2023/10/17 15:37:20;;;;;;;4.75;3.65;;;;;;;;;;4915518;29;20028;-60
2023/10/17 15:39:46;;;;;;;5.00;3.75;;;;;;;;;;4914957;29;20426;-60
2023/10/17 15:42:14;;;;;;;4.75;3.60;;;;;;;;;;4915776;29;20067;-60
2023/10/17 15:44:41;;;;;;;4.55;3.80;;;;;;;;;;4897734;29;20115;-60
2023/10/17 15:47:06;;;;;;;5.75;3.85;;;;;;;;;;4883475;29;20371;-59
2023/10/17 15:49:32;;;;;;;5.30;3.97;;;;;;;;;;4913916;29;20121;-60
2023/10/17 15:51:58;;;;;;;4.30;3.70;;;;;;;;;;4915609;29;20403;-60
2023/10/17 15:54:24;;;;;;;6.72;3.78;;;;;;;;;;4898274;29;20036;-59
2023/10/17 15:56:50;;;;;;;5.13;3.63;;;;;;;;;;4914497;29;20028;-59
2023/10/17 15:59:16;;;;;;;4.50;3.60;;;;;;;;;;4915658;29;20032;-61
2023/10/17 16:01:42;;;;;;;5.78;3.67;;;;;;;;;;4914580;29;20028;-61
2023/10/17 16:04:07;;;;;;;6.63;3.28;;;;;;;;;;4911397;29;20401;-61
2023/10/17 16:06:33;;;;;;;5.35;3.60;;;;;;;;;;4913500;29;20064;-62
2023/10/17 16:08:58;;;;;;;7.25;3.47;;;;;;;;;;4915404;29;20028;-61
2023/10/17 16:11:24;;;;;;;4.53;3.10;;;;;;;;;;4918127;29;20055;-60
2023/10/17 16:13:49;;;;;;;4.55;3.33;;;;;;;;;;4933186;29;20094;-61
2023/10/17 16:16:15;;;;;;;5.05;3.50;;;;;;;;;;4934328;29;20032;-61
2023/10/17 16:18:40;;;;;;;10.80;3.78;;;;;;;;;;4933075;29;20036;-61
2023/10/17 16:21:09;;;;;;;5.13;3.60;;;;;;;;;;4917625;29;20036;-61
2023/10/17 16:23:35;;;;;;;6.03;3.80;;;;;;;;;;4919347;29;20027;-61
2023/10/17 16:26:01;;;;;;;5.70;3.55;;;;;;;;;;4934339;29;20028;-60
2023/10/17 16:28:26;;;;;;;6.22;3.85;;;;;;;;;;4933755;29;20039;-61
2023/10/17 16:30:52;;;;;;;6.93;4.10;;;;;;;;;;4933530;29;20188;-60
2023/10/17 16:33:17;;;;;;;6.18;3.97;;;;;;;;;;4916649;29;20044;-60
2023/10/17 16:35:45;;;;;;;7.00;3.67;;;;;;;;;;4933264;29;20047;-60
2023/10/17 16:38:11;;;;;;;7.88;4.20;;;;;;;;;;4934579;29;20032;-60
2023/10/17 16:40:47;;;;;;;7.03;4.47;;;;;;;;;;4936875;29;20027;-60
2023/10/17 16:43:12;;;;;;;6.47;4.20;;;;;;;;;;4937659;29;20122;-60
2023/10/17 16:45:38;;;;;;;6.03;4.10;;;;;;;;;;4936508;29;20168;-61
2023/10/17 16:48:05;;;;;;;6.30;4.05;;;;;;;;;;4936842;29;20040;-60
2023/10/17 16:50:31;;;;;;;8.88;4.30;;;;;;;;;;4937529;29;20042;-60
2023/10/17 16:52:56;;;;;;;7.55;4.55;;;;;;;;;;4936607;29;20388;-60
2023/10/17 16:55:22;;;;;;;8.07;4.55;;;;;;;;;;4937408;29;20172;-60
2023/10/17 16:57:47;;;;;;;8.00;4.68;;;;;;;;;;4936589;29;20032;-60
2023/10/17 17:00:13;;;;;;;6.07;4.35;;;;;;;;;;4937361;29;20031;-60
2023/10/17 17:02:42;;;;;;;6.28;4.18;;;;;;;;;;4935838;29;20040;-60
2023/10/17 17:05:09;;;;;;;7.88;4.57;;;;;;;;;;4936988;29;20122;-60
2023/10/17 17:07:36;;;;;;;7.03;4.43;;;;;;;;;;4936659;29;20038;-60
2023/10/17 17:10:02;;;;;;;6.80;4.43;;;;;;;;;;4937113;29;20068;-60
2023/10/17 17:12:27;;;;;;;8.38;4.90;;;;;;;;;;4937312;29;20107;-60
2023/10/17 17:14:53;;;;;;;8.88;5.10;;;;;;;;;;4936167;29;20485;-60